sensor_id;sensor_type;location;lat;lon;timestamp;pressure;altitude;pressure_sealevel;temperature;humidity
43824;BME280;29470;53.550;9.926;2023-10-08T00:01:06;101651.28;;;16.49;82.03
43824;BME280;29470;53.550;9.926;2023-10-08T00:06:10;101656.81;;;16.69;83.01
43824;BME280;29470;53.550;9.926;2023-10-08T00:11:17;101669.53;;;16.77;80.50
43824;BME280;29470;53.550;9.926;2023-10-08T00:16:20;101669.41;;;16.61;81.22
43824;BME280;29470;53.550;9.926;2023-10-08T00:21:24;101657.63;;;16.53;80.87
43824;BME280;29470;53.550;9.926;2023-10-08T00:26:31;101656.53;;;16.79;79.68
43824;BME280;29470;53.550;9.926;2023-10-08T00:31:34;101660.03;;;16.79;79.90
43824;BME280;29470;53.550;9.926;2023-10-08T00:36:43;101678.13;;;16.61;80.93
43824;BME280;29470;53.550;9.926;2023-10-08T00:41:50;101712.72;;;16.57;80.75
43824;BME280;29470;53.550;9.926;2023-10-08T00:46:56;101723.28;;;16.89;79.93
43824;BME280;29470;53.550;9.926;2023-10-08T00:52:03;101731.75;;;16.70;80.64
43824;BME280;29470;53.550;9.926;2023-10-08T00:57:29;101726.59;;;16.56;79.75
43824;BME280;29470;53.550;9.926;2023-10-08T01:02:37;101711.66;;;16.69;80.76
43824;BME280;29470;53.550;9.926;2023-10-08T01:07:47;101719.44;;;16.39;82.62
43824;BME280;29470;53.550;9.926;2023-10-08T01:12:54;101730.31;;;16.31;82.45
43824;BME280;29470;53.550;9.926;2023-10-08T01:18:06;101730.47;;;16.63;81.90
43824;BME280;29470;53.550;9.926;2023-10-08T01:23:18;101743.66;;;16.36;83.06
43824;BME280;29470;53.550;9.926;2023-10-08T01:28:22;101732.78;;;16.43;82.56
43824;BME280;29470;53.550;9.926;2023-10-08T01:33:30;101747.28;;;16.53;81.28
43824;BME280;29470;53.550;9.926;2023-10-08T01:38:40;101731.69;;;16.98;79.11
43824;BME280;29470;53.550;9.926;2023-10-08T01:43:44;101746.66;;;17.01;77.87
43824;BME280;29470;53.550;9.926;2023-10-08T01:48:47;101764.69;;;16.68;78.51
43824;BME280;29470;53.550;9.926;2023-10-08T01:53:56;101746.41;;;17.11;77.32
43824;BME280;29470;53.550;9.926;2023-10-08T01:59:00;101722.34;;;17.02;76.78
43824;BME280;29470;53.550;9.926;2023-10-08T02:04:04;101706.16;;;16.94;77.10
43824;BME280;29470;53.550;9.926;2023-10-08T02:09:09;101713.41;;;16.40;81.23
43824;BME280;29470;53.550;9.926;2023-10-08T02:14:15;101695.78;;;16.81;81.16
43824;BME280;29470;53.550;9.926;2023-10-08T02:19:18;101715.31;;;16.57;79.98
43824;BME280;29470;53.550;9.926;2023-10-08T02:24:30;101732.66;;;16.42;81.60
43824;BME280;29470;53.550;9.926;2023-10-08T02:29:34;101748.56;;;16.60;79.33
43824;BME280;29470;53.550;9.926;2023-10-08T02:34:37;101752.31;;;16.50;80.22
43824;BME280;29470;53.550;9.926;2023-10-08T02:39:41;101760.47;;;16.85;77.09
43824;BME280;29470;53.550;9.926;2023-10-08T02:44:44;101784.59;;;16.66;78.02
43824;BME280;29470;53.550;9.926;2023-10-08T02:49:47;101802.28;;;16.85;74.81
43824;BME280;29470;53.550;9.926;2023-10-08T02:54:52;101805.41;;;16.35;76.71
43824;BME280;29470;53.550;9.926;2023-10-08T02:59:55;101796.53;;;16.90;74.84
43824;BME280;29470;53.550;9.926;2023-10-08T03:04:58;101817.66;;;16.65;75.18
43824;BME280;29470;53.550;9.926;2023-10-08T03:10:03;101815.69;;;16.76;75.28
43824;BME280;29470;53.550;9.926;2023-10-08T03:15:08;101812.44;;;16.65;75.48
43824;BME280;29470;53.550;9.926;2023-10-08T03:20:16;101816.09;;;16.54;74.79
43824;BME280;29470;53.550;9.926;2023-10-08T03:25:42;101817.84;;;16.68;74.48
43824;BME280;29470;53.550;9.926;2023-10-08T03:30:47;101833.56;;;16.55;74.35
43824;BME280;29470;53.550;9.926;2023-10-08T03:35:54;101835.25;;;16.26;75.57
43824;BME280;29470;53.550;9.926;2023-10-08T03:40:59;101845.84;;;16.42;74.69
43824;BME280;29470;53.550;9.926;2023-10-08T03:46:08;101848.22;;;16.66;72.86
43824;BME280;29470;53.550;9.926;2023-10-08T03:51:17;101844.75;;;16.96;69.36
43824;BME280;29470;53.550;9.926;2023-10-08T03:56:24;101831.44;;;16.62;70.06
43824;BME280;29470;53.550;9.926;2023-10-08T04:01:27;101846.97;;;16.74;68.22
43824;BME280;29470;53.550;9.926;2023-10-08T04:06:34;101866.97;;;16.18;71.23
43824;BME280;29470;53.550;9.926;2023-10-08T04:11:42;101872.31;;;16.62;70.71
43824;BME280;29470;53.550;9.926;2023-10-08T04:16:55;101855.38;;;16.42;70.84
43824;BME280;29470;53.550;9.926;2023-10-08T04:21:58;101853.47;;;16.53;71.17
43824;BME280;29470;53.550;9.926;2023-10-08T04:27:03;101874.81;;;16.32;71.22
43824;BME280;29470;53.550;9.926;2023-10-08T04:32:11;101870.41;;;16.17;70.79
43824;BME280;29470;53.550;9.926;2023-10-08T04:37:22;101902.59;;;16.18;71.21
43824;BME280;29470;53.550;9.926;2023-10-08T04:42:35;101922.00;;;16.22;70.47
43824;BME280;29470;53.550;9.926;2023-10-08T04:47:42;101922.06;;;16.23;69.31
43824;BME280;29470;53.550;9.926;2023-10-08T04:52:45;101924.47;;;16.07;69.85
43824;BME280;29470;53.550;9.926;2023-10-08T04:58:01;101914.97;;;16.34;69.88
43824;BME280;29470;53.550;9.926;2023-10-08T05:03:07;101913.03;;;16.04;71.15
43824;BME280;29470;53.550;9.926;2023-10-08T05:08:16;101919.38;;;16.22;69.86
43824;BME280;29470;53.550;9.926;2023-10-08T05:13:31;101922.06;;;16.37;68.53
43824;BME280;29470;53.550;9.926;2023-10-08T05:18:46;101931.91;;;16.00;70.99
43824;BME280;29470;53.550;9.926;2023-10-08T05:24:26;101941.16;;;16.22;70.68
43824;BME280;29470;53.550;9.926;2023-10-08T05:29:41;101939.94;;;16.03;71.87
43824;BME280;29470;53.550;9.926;2023-10-08T05:35:13;101948.28;;;16.25;71.20
43824;BME280;29470;53.550;9.926;2023-10-08T05:40:51;101957.94;;;16.39;69.40
43824;BME280;29470;53.550;9.926;2023-10-08T05:46:14;101971.03;;;16.00;70.64
43824;BME280;29470;53.550;9.926;2023-10-08T05:51:38;101972.06;;;16.02;71.20
43824;BME280;29470;53.550;9.926;2023-10-08T05:57:08;101986.91;;;15.90;70.31
43824;BME280;29470;53.550;9.926;2023-10-08T06:02:40;101982.44;;;15.75;71.67
43824;BME280;29470;53.550;9.926;2023-10-08T06:08:02;101997.13;;;15.61;72.55
43824;BME280;29470;53.550;9.926;2023-10-08T06:13:14;102004.69;;;15.96;70.89
43824;BME280;29470;53.550;9.926;2023-10-08T06:18:25;102015.00;;;15.94;71.36
43824;BME280;29470;53.550;9.926;2023-10-08T06:23:29;102019.28;;;16.46;68.83
43824;BME280;29470;53.550;9.926;2023-10-08T06:28:38;102017.94;;;17.78;67.07
43824;BME280;29470;53.550;9.926;2023-10-08T06:33:43;102021.09;;;19.26;59.36
43824;BME280;29470;53.550;9.926;2023-10-08T06:38:47;102036.69;;;18.76;56.71
43824;BME280;29470;53.550;9.926;2023-10-08T06:43:51;102044.59;;;18.61;57.71
43824;BME280;29470;53.550;9.926;2023-10-08T06:49:07;102055.16;;;18.63;56.38
43824;BME280;29470;53.550;9.926;2023-10-08T06:54:14;102063.59;;;20.01;53.51
43824;BME280;29470;53.550;9.926;2023-10-08T06:59:19;102058.81;;;20.82;49.05
43824;BME280;29470;53.550;9.926;2023-10-08T07:04:25;102053.88;;;22.70;44.87
43824;BME280;29470;53.550;9.926;2023-10-08T07:09:29;102055.25;;;22.17;43.39
43824;BME280;29470;53.550;9.926;2023-10-08T07:14:32;102053.22;;;23.44;42.40
43824;BME280;29470;53.550;9.926;2023-10-08T07:19:36;102055.00;;;22.54;42.27
43824;BME280;29470;53.550;9.926;2023-10-08T07:24:41;102069.44;;;21.03;43.28
43824;BME280;29470;53.550;9.926;2023-10-08T07:29:47;102083.28;;;19.93;46.09
43824;BME280;29470;53.550;9.926;2023-10-08T07:34:51;102091.91;;;19.26;47.23
43824;BME280;29470;53.550;9.926;2023-10-08T07:39:59;102112.47;;;18.72;47.69
43824;BME280;29470;53.550;9.926;2023-10-08T07:45:02;102107.69;;;18.96;47.98
43824;BME280;29470;53.550;9.926;2023-10-08T07:50:08;102124.22;;;18.48;48.11
43824;BME280;29470;53.550;9.926;2023-10-08T07:55:14;102123.03;;;18.58;47.75
43824;BME280;29470;53.550;9.926;2023-10-08T08:00:20;102130.41;;;18.80;47.20
43824;BME280;29470;53.550;9.926;2023-10-08T08:05:28;102134.63;;;17.75;48.01
43824;BME280;29470;53.550;9.926;2023-10-08T08:10:31;102131.81;;;18.00;48.07
43824;BME280;29470;53.550;9.926;2023-10-08T08:15:38;102150.16;;;17.58;49.45
43824;BME280;29470;53.550;9.926;2023-10-08T08:20:50;102155.97;;;17.12;49.42
43824;BME280;29470;53.550;9.926;2023-10-08T08:25:56;102158.22;;;17.90;48.12
43824;BME280;29470;53.550;9.926;2023-10-08T08:31:12;102163.25;;;17.87;47.32
43824;BME280;29470;53.550;9.926;2023-10-08T08:36:17;102181.75;;;18.03;47.52
43824;BME280;29470;53.550;9.926;2023-10-08T08:41:20;102184.13;;;18.14;46.83
43824;BME280;29470;53.550;9.926;2023-10-08T08:46:30;102184.06;;;18.27;45.94
43824;BME280;29470;53.550;9.926;2023-10-08T08:51:36;102194.72;;;18.30;45.71
43824;BME280;29470;53.550;9.926;2023-10-08T08:56:40;102195.03;;;18.06;46.01
43824;BME280;29470;53.550;9.926;2023-10-08T09:01:45;102190.72;;;18.65;44.99
43824;BME280;29470;53.550;9.926;2023-10-08T09:06:50;102197.03;;;18.10;46.18
43824;BME280;29470;53.550;9.926;2023-10-08T09:11:55;102203.81;;;17.93;46.79
43824;BME280;29470;53.550;9.926;2023-10-08T09:17:00;102205.06;;;17.72;46.77
43824;BME280;29470;53.550;9.926;2023-10-08T09:22:08;102205.44;;;18.78;45.93
43824;BME280;29470;53.550;9.926;2023-10-08T09:27:13;102212.13;;;18.88;43.85
43824;BME280;29470;53.550;9.926;2023-10-08T09:32:17;102206.56;;;19.12;43.35
43824;BME280;29470;53.550;9.926;2023-10-08T09:37:27;102223.44;;;19.95;41.92
43824;BME280;29470;53.550;9.926;2023-10-08T09:42:30;102231.56;;;19.37;41.85
43824;BME280;29470;53.550;9.926;2023-10-08T09:47:36;102229.59;;;19.49;41.58
43824;BME280;29470;53.550;9.926;2023-10-08T09:52:49;102229.00;;;18.78;44.00
43824;BME280;29470;53.550;9.926;2023-10-08T09:57:52;102232.44;;;18.62;44.01
43824;BME280;29470;53.550;9.926;2023-10-08T10:02:58;102227.06;;;19.04;43.99
43824;BME280;29470;53.550;9.926;2023-10-08T10:08:05;102235.00;;;18.76;44.06
43824;BME280;29470;53.550;9.926;2023-10-08T10:13:11;102244.38;;;18.57;44.89
43824;BME280;29470;53.550;9.926;2023-10-08T10:18:15;102245.31;;;19.64;43.39
43824;BME280;29470;53.550;9.926;2023-10-08T10:23:39;102234.72;;;19.63;42.88
43824;BME280;29470;53.550;9.926;2023-10-08T10:28:44;102239.53;;;20.18;41.25
43824;BME280;29470;53.550;9.926;2023-10-08T10:33:47;102251.66;;;19.99;42.01
43824;BME280;29470;53.550;9.926;2023-10-08T10:38:52;102247.03;;;19.02;41.53
43824;BME280;29470;53.550;9.926;2023-10-08T10:43:57;102248.41;;;19.10;42.86
43824;BME280;29470;53.550;9.926;2023-10-08T10:49:04;102227.16;;;19.06;41.81
43824;BME280;29470;53.550;9.926;2023-10-08T10:54:21;102229.41;;;19.61;41.68
43824;BME280;29470;53.550;9.926;2023-10-08T10:59:27;102218.66;;;18.80;43.71
43824;BME280;29470;53.550;9.926;2023-10-08T11:04:30;102208.19;;;18.21;45.12
43824;BME280;29470;53.550;9.926;2023-10-08T11:09:34;102199.03;;;19.50;42.37
43824;BME280;29470;53.550;9.926;2023-10-08T11:14:40;102200.13;;;20.01;41.11
43824;BME280;29470;53.550;9.926;2023-10-08T11:19:44;102198.13;;;19.18;41.78
43824;BME280;29470;53.550;9.926;2023-10-08T11:24:49;102189.63;;;20.01;39.48
43824;BME280;29470;53.550;9.926;2023-10-08T11:29:56;102190.03;;;20.09;38.98
43824;BME280;29470;53.550;9.926;2023-10-08T11:35:00;102194.09;;;20.88;38.82
43824;BME280;29470;53.550;9.926;2023-10-08T11:40:23;102192.22;;;21.04;38.63
43824;BME280;29470;53.550;9.926;2023-10-08T11:45:30;102199.88;;;20.65;40.52
43824;BME280;29470;53.550;9.926;2023-10-08T11:50:40;102197.41;;;20.68;39.98
43824;BME280;29470;53.550;9.926;2023-10-08T11:55:44;102203.22;;;20.95;39.94
43824;BME280;29470;53.550;9.926;2023-10-08T12:00:49;102200.13;;;20.86;40.21
43824;BME280;29470;53.550;9.926;2023-10-08T12:05:54;102182.25;;;20.62;40.21
43824;BME280;29470;53.550;9.926;2023-10-08T12:11:02;102198.31;;;21.39;37.34
43824;BME280;29470;53.550;9.926;2023-10-08T12:16:08;102192.25;;;21.98;36.68
43824;BME280;29470;53.550;9.926;2023-10-08T12:21:15;102174.66;;;21.97;37.81
43824;BME280;29470;53.550;9.926;2023-10-08T12:26:20;102175.03;;;21.11;38.71
43824;BME280;29470;53.550;9.926;2023-10-08T12:31:23;102163.59;;;20.57;38.78
43824;BME280;29470;53.550;9.926;2023-10-08T12:36:27;102150.88;;;20.30;39.37
43824;BME280;29470;53.550;9.926;2023-10-08T12:41:35;102172.03;;;20.68;38.94
43824;BME280;29470;53.550;9.926;2023-10-08T12:46:40;102185.84;;;20.64;39.25
43824;BME280;29470;53.550;9.926;2023-10-08T12:51:45;102193.34;;;21.27;38.34
43824;BME280;29470;53.550;9.926;2023-10-08T12:56:49;102179.41;;;21.48;37.64
43824;BME280;29470;53.550;9.926;2023-10-08T13:01:56;102176.72;;;21.84;36.11
43824;BME280;29470;53.550;9.926;2023-10-08T13:06:59;102171.72;;;22.10;36.78
43824;BME280;29470;53.550;9.926;2023-10-08T13:12:06;102187.25;;;22.04;37.09
43824;BME280;29470;53.550;9.926;2023-10-08T13:17:10;102210.97;;;21.84;37.25
43824;BME280;29470;53.550;9.926;2023-10-08T13:22:13;102204.03;;;21.86;37.09
43824;BME280;29470;53.550;9.926;2023-10-08T13:27:23;102211.75;;;21.63;36.99
43824;BME280;29470;53.550;9.926;2023-10-08T13:32:26;102204.44;;;21.76;37.34
43824;BME280;29470;53.550;9.926;2023-10-08T13:37:29;102183.53;;;21.99;37.87
43824;BME280;29470;53.550;9.926;2023-10-08T13:42:33;102193.56;;;21.32;39.23
43824;BME280;29470;53.550;9.926;2023-10-08T13:47:36;102197.78;;;21.84;38.46
43824;BME280;29470;53.550;9.926;2023-10-08T13:52:41;102213.25;;;21.22;40.63
43824;BME280;29470;53.550;9.926;2023-10-08T13:57:47;102222.72;;;21.55;40.02
43824;BME280;29470;53.550;9.926;2023-10-08T14:02:51;102212.88;;;21.51;39.91
43824;BME280;29470;53.550;9.926;2023-10-08T14:07:54;102217.94;;;21.10;38.07
43824;BME280;29470;53.550;9.926;2023-10-08T14:13:00;102218.84;;;20.92;39.03
43824;BME280;29470;53.550;9.926;2023-10-08T14:18:03;102213.66;;;21.12;39.03
43824;BME280;29470;53.550;9.926;2023-10-08T14:23:10;102208.31;;;21.10;38.97
43824;BME280;29470;53.550;9.926;2023-10-08T14:28:14;102205.16;;;20.99;38.03
43824;BME280;29470;53.550;9.926;2023-10-08T14:33:24;102205.75;;;20.77;38.54
43824;BME280;29470;53.550;9.926;2023-10-08T14:38:28;102205.13;;;20.81;39.00
43824;BME280;29470;53.550;9.926;2023-10-08T14:43:52;102197.19;;;20.12;40.27
43824;BME280;29470;53.550;9.926;2023-10-08T14:48:55;102180.66;;;20.31;39.81
43824;BME280;29470;53.550;9.926;2023-10-08T14:54:03;102184.53;;;20.21;40.10
43824;BME280;29470;53.550;9.926;2023-10-08T14:59:16;102153.53;;;20.49;40.46
43824;BME280;29470;53.550;9.926;2023-10-08T15:04:19;102167.00;;;20.38;41.39
43824;BME280;29470;53.550;9.926;2023-10-08T15:09:23;102188.06;;;20.05;42.21
43824;BME280;29470;53.550;9.926;2023-10-08T15:14:27;102175.75;;;20.04;42.30
43824;BME280;29470;53.550;9.926;2023-10-08T15:19:30;102175.41;;;20.14;42.82
43824;BME280;29470;53.550;9.926;2023-10-08T15:24:33;102172.75;;;19.81;43.54
43824;BME280;29470;53.550;9.926;2023-10-08T15:29:39;102176.03;;;19.77;43.05
43824;BME280;29470;53.550;9.926;2023-10-08T15:34:42;102176.47;;;19.85;43.51
43824;BME280;29470;53.550;9.926;2023-10-08T15:39:48;102175.84;;;20.06;43.21
43824;BME280;29470;53.550;9.926;2023-10-08T15:44:52;102166.03;;;19.86;43.34
43824;BME280;29470;53.550;9.926;2023-10-08T15:49:55;102163.41;;;19.86;43.13
43824;BME280;29470;53.550;9.926;2023-10-08T15:55:00;102146.38;;;19.95;43.21
43824;BME280;29470;53.550;9.926;2023-10-08T16:00:05;102140.00;;;19.58;43.86
43824;BME280;29470;53.550;9.926;2023-10-08T16:05:09;102111.72;;;19.69;44.64
43824;BME280;29470;53.550;9.926;2023-10-08T16:10:12;102120.69;;;19.89;43.74
43824;BME280;29470;53.550;9.926;2023-10-08T16:15:16;102141.22;;;19.48;44.34
43824;BME280;29470;53.550;9.926;2023-10-08T16:20:20;102126.47;;;19.67;43.88
43824;BME280;29470;53.550;9.926;2023-10-08T16:25:23;102120.28;;;18.87;44.58
43824;BME280;29470;53.550;9.926;2023-10-08T16:30:29;102111.22;;;19.60;45.09
43824;BME280;29470;53.550;9.926;2023-10-08T16:35:35;102102.53;;;19.77;43.83
43824;BME280;29470;53.550;9.926;2023-10-08T16:40:40;102062.34;;;19.45;44.38
43824;BME280;29470;53.550;9.926;2023-10-08T16:45:45;102094.97;;;19.34;45.29
43824;BME280;29470;53.550;9.926;2023-10-08T16:50:48;102111.03;;;19.23;45.88
43824;BME280;29470;53.550;9.926;2023-10-08T16:55:52;102124.44;;;19.13;46.82
43824;BME280;29470;53.550;9.926;2023-10-08T17:00:56;102104.16;;;19.25;46.84
43824;BME280;29470;53.550;9.926;2023-10-08T17:06:00;102107.41;;;19.21;48.20
43824;BME280;29470;53.550;9.926;2023-10-08T17:11:09;102110.81;;;19.04;49.26
43824;BME280;29470;53.550;9.926;2023-10-08T17:16:14;102104.19;;;19.10;49.26
43824;BME280;29470;53.550;9.926;2023-10-08T17:21:18;102098.38;;;19.16;47.45
43824;BME280;29470;53.550;9.926;2023-10-08T17:26:24;102097.66;;;19.35;48.55
43824;BME280;29470;53.550;9.926;2023-10-08T17:31:28;102093.38;;;19.21;48.98
43824;BME280;29470;53.550;9.926;2023-10-08T17:36:35;102065.78;;;19.27;49.57
43824;BME280;29470;53.550;9.926;2023-10-08T17:41:38;102048.91;;;19.22;49.25
43824;BME280;29470;53.550;9.926;2023-10-08T17:46:42;102027.78;;;19.04;48.79
43824;BME280;29470;53.550;9.926;2023-10-08T17:51:46;102027.41;;;19.13;45.59
43824;BME280;29470;53.550;9.926;2023-10-08T17:56:48;102032.31;;;19.07;45.74
43824;BME280;29470;53.550;9.926;2023-10-08T18:01:54;102033.78;;;19.02;45.82
43824;BME280;29470;53.550;9.926;2023-10-08T18:06:57;102021.19;;;18.64;47.93
43824;BME280;29470;53.550;9.926;2023-10-08T18:12:00;102017.16;;;18.86;45.08
43824;BME280;29470;53.550;9.926;2023-10-08T18:17:05;102009.47;;;18.89;43.00
43824;BME280;29470;53.550;9.926;2023-10-08T18:22:07;102002.31;;;19.02;41.99
43824;BME280;29470;53.550;9.926;2023-10-08T18:27:11;101994.28;;;18.98;41.93
43824;BME280;29470;53.550;9.926;2023-10-08T18:32:16;101991.84;;;18.55;43.15
43824;BME280;29470;53.550;9.926;2023-10-08T18:37:18;101992.91;;;18.42;44.04
43824;BME280;29470;53.550;9.926;2023-10-08T18:42:22;101988.47;;;18.26;44.61
43824;BME280;29470;53.550;9.926;2023-10-08T18:47:30;101985.97;;;18.13;45.36
43824;BME280;29470;53.550;9.926;2023-10-08T18:52:35;101989.06;;;18.52;44.92
43824;BME280;29470;53.550;9.926;2023-10-08T18:57:38;101984.88;;;18.55;45.43
43824;BME280;29470;53.550;9.926;2023-10-08T19:02:45;101972.59;;;18.38;46.61
43824;BME280;29470;53.550;9.926;2023-10-08T19:07:47;101978.06;;;18.43;47.64
43824;BME280;29470;53.550;9.926;2023-10-08T19:12:52;101986.38;;;18.50;46.23
43824;BME280;29470;53.550;9.926;2023-10-08T19:17:57;101988.59;;;18.59;46.73
43824;BME280;29470;53.550;9.926;2023-10-08T19:23:06;101972.94;;;18.61;46.11
43824;BME280;29470;53.550;9.926;2023-10-08T19:28:10;101958.38;;;18.66;47.07
43824;BME280;29470;53.550;9.926;2023-10-08T19:33:18;101937.31;;;18.48;48.03
43824;BME280;29470;53.550;9.926;2023-10-08T19:38:21;101938.00;;;18.29;48.96
43824;BME280;29470;53.550;9.926;2023-10-08T19:43:24;101923.00;;;18.41;48.43
43824;BME280;29470;53.550;9.926;2023-10-08T19:48:28;101921.78;;;18.19;50.30
43824;BME280;29470;53.550;9.926;2023-10-08T19:53:36;101928.72;;;18.19;51.95
43824;BME280;29470;53.550;9.926;2023-10-08T19:58:39;101936.75;;;18.22;54.39
43824;BME280;29470;53.550;9.926;2023-10-08T20:03:43;101931.34;;;17.74;58.77
43824;BME280;29470;53.550;9.926;2023-10-08T20:08:47;101926.81;;;17.71;61.09
43824;BME280;29470;53.550;9.926;2023-10-08T20:13:51;101926.75;;;17.11;65.15
43824;BME280;29470;53.550;9.926;2023-10-08T20:18:57;101928.00;;;17.61;62.97
43824;BME280;29470;53.550;9.926;2023-10-08T20:24:01;101902.19;;;17.67;64.72
43824;BME280;29470;53.550;9.926;2023-10-08T20:29:04;101898.69;;;17.52;62.97
43824;BME280;29470;53.550;9.926;2023-10-08T20:34:08;101888.94;;;17.49;62.27
43824;BME280;29470;53.550;9.926;2023-10-08T20:39:11;101884.44;;;17.77;61.25
43824;BME280;29470;53.550;9.926;2023-10-08T20:44:14;101890.81;;;17.67;60.48
43824;BME280;29470;53.550;9.926;2023-10-08T20:49:19;101880.44;;;17.38;59.46
43824;BME280;29470;53.550;9.926;2023-10-08T20:54:22;101879.41;;;17.65;59.18
43824;BME280;29470;53.550;9.926;2023-10-08T20:59:26;101878.72;;;17.24;58.47
43824;BME280;29470;53.550;9.926;2023-10-08T21:04:31;101860.88;;;17.47;57.27
43824;BME280;29470;53.550;9.926;2023-10-08T21:09:35;101853.66;;;16.56;59.78
43824;BME280;29470;53.550;9.926;2023-10-08T21:14:38;101861.28;;;17.10;57.87
43824;BME280;29470;53.550;9.926;2023-10-08T21:19:42;101848.00;;;16.91;57.48
43824;BME280;29470;53.550;9.926;2023-10-08T21:24:46;101858.72;;;17.40;58.03
43824;BME280;29470;53.550;9.926;2023-10-08T21:29:49;101869.81;;;17.20;56.83
43824;BME280;29470;53.550;9.926;2023-10-08T21:34:53;101874.50;;;16.69;61.00
43824;BME280;29470;53.550;9.926;2023-10-08T21:39:56;101869.50;;;16.87;61.97
43824;BME280;29470;53.550;9.926;2023-10-08T21:45:00;101861.69;;;17.46;61.31
43824;BME280;29470;53.550;9.926;2023-10-08T21:50:07;101862.97;;;17.22;62.46
43824;BME280;29470;53.550;9.926;2023-10-08T21:55:12;101845.28;;;17.33;62.14
43824;BME280;29470;53.550;9.926;2023-10-08T22:00:20;101851.13;;;16.86;62.73
43824;BME280;29470;53.550;9.926;2023-10-08T22:05:48;101821.47;;;17.14;62.62
43824;BME280;29470;53.550;9.926;2023-10-08T22:10:53;101809.94;;;17.25;63.84
43824;BME280;29470;53.550;9.926;2023-10-08T22:15:57;101815.88;;;17.07;63.77
43824;BME280;29470;53.550;9.926;2023-10-08T22:21:08;101793.06;;;17.20;62.71
43824;BME280;29470;53.550;9.926;2023-10-08T22:26:14;101791.91;;;17.30;63.28
43824;BME280;29470;53.550;9.926;2023-10-08T22:31:17;101771.72;;;17.27;63.83
43824;BME280;29470;53.550;9.926;2023-10-08T22:36:22;101786.16;;;17.82;61.42
43824;BME280;29470;53.550;9.926;2023-10-08T22:41:36;101783.72;;;17.23;64.70
43824;BME280;29470;53.550;9.926;2023-10-08T22:46:45;101790.56;;;17.21;64.58
43824;BME280;29470;53.550;9.926;2023-10-08T22:51:50;101764.25;;;16.90;65.46
43824;BME280;29470;53.550;9.926;2023-10-08T22:56:54;101758.03;;;16.58;67.22
43824;BME280;29470;53.550;9.926;2023-10-08T23:01:57;101743.41;;;16.46;67.86
43824;BME280;29470;53.550;9.926;2023-10-08T23:07:06;101730.72;;;16.53;66.37
43824;BME280;29470;53.550;9.926;2023-10-08T23:12:09;101717.44;;;16.78;64.58
43824;BME280;29470;53.550;9.926;2023-10-08T23:17:11;101704.94;;;16.44;66.07
43824;BME280;29470;53.550;9.926;2023-10-08T23:22:16;101670.06;;;16.13;68.00
43824;BME280;29470;53.550;9.926;2023-10-08T23:27:19;101666.19;;;15.93;69.03
43824;BME280;29470;53.550;9.926;2023-10-08T23:32:24;101673.41;;;15.97;70.80
43824;BME280;29470;53.550;9.926;2023-10-08T23:37:30;101676.94;;;15.84;70.39
43824;BME280;29470;53.550;9.926;2023-10-08T23:42:40;101643.13;;;15.86;71.23
43824;BME280;29470;53.550;9.926;2023-10-08T23:47:46;101660.53;;;15.58;74.55
43824;BME280;29470;53.550;9.926;2023-10-08T23:52:50;101657.50;;;16.36;70.56
43824;BME280;29470;53.550;9.926;2023-10-08T23:57:54;101684.22;;;16.03;70.93
